sensor_id;sensor_type;location;lat;lon;timestamp;pressure;altitude;pressure_sealevel;temperature;humidity
39891;BME280;25564;53.312;9.790;2023-05-23T00:01:46;100590.75;;;16.91;100.00
39891;BME280;25564;53.312;9.790;2023-05-23T00:04:18;100589.97;;;16.89;100.00
39891;BME280;25564;53.312;9.790;2023-05-23T00:06:50;100587.34;;;16.88;100.00
39891;BME280;25564;53.312;9.790;2023-05-23T00:09:21;100588.34;;;16.85;100.00
39891;BME280;25564;53.312;9.790;2023-05-23T00:11:53;100582.25;;;16.82;100.00
39891;BME280;25564;53.312;9.790;2023-05-23T00:14:25;100584.88;;;16.83;100.00
39891;BME280;25564;53.312;9.790;2023-05-23T00:16:57;100574.00;;;16.86;100.00
39891;BME280;25564;53.312;9.790;2023-05-23T00:19:29;100578.28;;;16.90;100.00
39891;BME280;25564;53.312;9.790;2023-05-23T00:22:01;100560.69;;;16.85;100.00
39891;BME280;25564;53.312;9.790;2023-05-23T00:24:33;100573.66;;;16.94;100.00
39891;BME280;25564;53.312;9.790;2023-05-23T00:27:04;100573.59;;;16.95;100.00
39891;BME280;25564;53.312;9.790;2023-05-23T00:29:36;100569.03;;;16.97;100.00
39891;BME280;25564;53.312;9.790;2023-05-23T00:32:07;100568.38;;;16.92;100.00
39891;BME280;25564;53.312;9.790;2023-05-23T00:34:38;100568.94;;;16.80;100.00
39891;BME280;25564;53.312;9.790;2023-05-23T00:37:10;100574.69;;;16.71;100.00
39891;BME280;25564;53.312;9.790;2023-05-23T00:39:41;100570.69;;;16.61;100.00
39891;BME280;25564;53.312;9.790;2023-05-23T00:42:13;100575.38;;;16.56;100.00
39891;BME280;25564;53.312;9.790;2023-05-23T00:44:44;100577.41;;;16.51;100.00
39891;BME280;25564;53.312;9.790;2023-05-23T00:47:16;100558.53;;;16.33;100.00
39891;BME280;25564;53.312;9.790;2023-05-23T00:49:48;100570.84;;;16.38;100.00
39891;BME280;25564;53.312;9.790;2023-05-23T00:52:19;100583.50;;;16.34;100.00
39891;BME280;25564;53.312;9.790;2023-05-23T00:54:50;100567.69;;;16.28;100.00
39891;BME280;25564;53.312;9.790;2023-05-23T00:57:22;100583.09;;;16.23;100.00
39891;BME280;25564;53.312;9.790;2023-05-23T00:59:53;100577.13;;;16.16;100.00
39891;BME280;25564;53.312;9.790;2023-05-23T01:02:25;100579.25;;;16.08;100.00
39891;BME280;25564;53.312;9.790;2023-05-23T01:04:58;100555.94;;;15.90;100.00
39891;BME280;25564;53.312;9.790;2023-05-23T01:07:29;100580.75;;;15.93;100.00
39891;BME280;25564;53.312;9.790;2023-05-23T01:10:02;100580.75;;;15.93;100.00
39891;BME280;25564;53.312;9.790;2023-05-23T01:12:50;100574.00;;;15.85;100.00
39891;BME280;25564;53.312;9.790;2023-05-23T01:15:32;100576.91;;;15.79;100.00
39891;BME280;25564;53.312;9.790;2023-05-23T01:18:09;100567.16;;;15.78;100.00
39891;BME280;25564;53.312;9.790;2023-05-23T01:20:56;100568.09;;;15.77;100.00
39891;BME280;25564;53.312;9.790;2023-05-23T01:24:00;100572.75;;;15.72;100.00
39891;BME280;25564;53.312;9.790;2023-05-23T01:26:52;100571.94;;;15.69;100.00
39891;BME280;25564;53.312;9.790;2023-05-23T01:29:34;100562.13;;;15.70;100.00
39891;BME280;25564;53.312;9.790;2023-05-23T01:32:09;100575.97;;;15.59;100.00
39891;BME280;25564;53.312;9.790;2023-05-23T01:34:42;100572.69;;;15.51;100.00
39891;BME280;25564;53.312;9.790;2023-05-23T01:37:14;100558.88;;;15.40;100.00
39891;BME280;25564;53.312;9.790;2023-05-23T01:39:48;100570.31;;;15.44;100.00
39891;BME280;25564;53.312;9.790;2023-05-23T01:42:20;100577.59;;;15.40;100.00
39891;BME280;25564;53.312;9.790;2023-05-23T01:44:51;100566.63;;;15.24;100.00
39891;BME280;25564;53.312;9.790;2023-05-23T01:47:23;100582.50;;;15.29;100.00
39891;BME280;25564;53.312;9.790;2023-05-23T01:49:55;100577.94;;;15.31;100.00
39891;BME280;25564;53.312;9.790;2023-05-23T01:52:27;100583.41;;;15.28;100.00
39891;BME280;25564;53.312;9.790;2023-05-23T01:55:00;100562.50;;;15.16;100.00
39891;BME280;25564;53.312;9.790;2023-05-23T01:57:32;100579.94;;;15.26;100.00
39891;BME280;25564;53.312;9.790;2023-05-23T02:00:05;100577.50;;;15.20;100.00
39891;BME280;25564;53.312;9.790;2023-05-23T02:02:37;100580.22;;;15.18;100.00
39891;BME280;25564;53.312;9.790;2023-05-23T02:05:09;100582.84;;;15.20;100.00
39891;BME280;25564;53.312;9.790;2023-05-23T02:07:41;100580.97;;;15.22;100.00
39891;BME280;25564;53.312;9.790;2023-05-23T02:10:12;100568.53;;;15.21;100.00
39891;BME280;25564;53.312;9.790;2023-05-23T02:12:44;100579.13;;;15.24;100.00
39891;BME280;25564;53.312;9.790;2023-05-23T02:15:17;100567.69;;;15.20;100.00
39891;BME280;25564;53.312;9.790;2023-05-23T02:17:49;100580.00;;;15.24;100.00
39891;BME280;25564;53.312;9.790;2023-05-23T02:20:21;100562.50;;;15.16;100.00
39891;BME280;25564;53.312;9.790;2023-05-23T02:22:53;100588.19;;;15.20;100.00
39891;BME280;25564;53.312;9.790;2023-05-23T02:25:24;100594.59;;;15.16;100.00
39891;BME280;25564;53.312;9.790;2023-05-23T02:27:55;100583.19;;;15.11;100.00
39891;BME280;25564;53.312;9.790;2023-05-23T02:30:27;100584.72;;;15.18;100.00
39891;BME280;25564;53.312;9.790;2023-05-23T02:32:58;100577.69;;;15.15;100.00
39891;BME280;25564;53.312;9.790;2023-05-23T02:35:29;100586.28;;;15.23;100.00
39891;BME280;25564;53.312;9.790;2023-05-23T02:38:01;100595.97;;;15.26;100.00
39891;BME280;25564;53.312;9.790;2023-05-23T02:40:32;100568.16;;;15.08;100.00
39891;BME280;25564;53.312;9.790;2023-05-23T02:43:03;100581.34;;;15.13;100.00
39891;BME280;25564;53.312;9.790;2023-05-23T02:45:35;100582.16;;;15.15;100.00
39891;BME280;25564;53.312;9.790;2023-05-23T02:48:06;100586.09;;;15.28;100.00
39891;BME280;25564;53.312;9.790;2023-05-23T02:50:38;100595.00;;;15.28;100.00
39891;BME280;25564;53.312;9.790;2023-05-23T02:53:09;100568.03;;;15.11;100.00
39891;BME280;25564;53.312;9.790;2023-05-23T02:55:40;100595.28;;;15.21;100.00
39891;BME280;25564;53.312;9.790;2023-05-23T02:58:13;100567.41;;;15.04;100.00
39891;BME280;25564;53.312;9.790;2023-05-23T03:00:45;100587.56;;;15.13;100.00
39891;BME280;25564;53.312;9.790;2023-05-23T03:03:16;100586.78;;;15.10;100.00
39891;BME280;25564;53.312;9.790;2023-05-23T03:05:48;100568.63;;;14.96;100.00
39891;BME280;25564;53.312;9.790;2023-05-23T03:08:20;100577.28;;;15.02;100.00
39891;BME280;25564;53.312;9.790;2023-05-23T03:10:51;100595.75;;;15.09;100.00
39891;BME280;25564;53.312;9.790;2023-05-23T03:13:23;100577.22;;;15.04;100.00
39891;BME280;25564;53.312;9.790;2023-05-23T03:15:54;100584.81;;;15.15;100.00
39891;BME280;25564;53.312;9.790;2023-05-23T03:18:26;100590.22;;;15.13;100.00
39891;BME280;25564;53.312;9.790;2023-05-23T03:20:57;100590.41;;;15.09;100.00
39891;BME280;25564;53.312;9.790;2023-05-23T03:23:29;100590.47;;;15.07;100.00
39891;BME280;25564;53.312;9.790;2023-05-23T03:26:00;100597.84;;;15.00;100.00
39891;BME280;25564;53.312;9.790;2023-05-23T03:28:32;100597.94;;;14.97;100.00
39891;BME280;25564;53.312;9.790;2023-05-23T03:31:03;100575.19;;;14.87;100.00
39891;BME280;25564;53.312;9.790;2023-05-23T03:33:35;100595.28;;;14.97;100.00
39891;BME280;25564;53.312;9.790;2023-05-23T03:36:10;100570.94;;;14.82;100.00
39891;BME280;25564;53.312;9.790;2023-05-23T03:38:42;100570.19;;;14.78;100.00
39891;BME280;25564;53.312;9.790;2023-05-23T03:41:13;100571.16;;;14.76;100.00
39891;BME280;25564;53.312;9.790;2023-05-23T03:43:45;100585.06;;;14.85;100.00
39891;BME280;25564;53.312;9.790;2023-05-23T03:46:17;100564.34;;;14.67;100.00
39891;BME280;25564;53.312;9.790;2023-05-23T03:48:49;100574.81;;;14.73;100.00
39891;BME280;25564;53.312;9.790;2023-05-23T03:51:21;100587.88;;;14.81;100.00
39891;BME280;25564;53.312;9.790;2023-05-23T03:53:54;100587.94;;;14.79;100.00
39891;BME280;25564;53.312;9.790;2023-05-23T03:56:25;100573.84;;;14.76;100.00
39891;BME280;25564;53.312;9.790;2023-05-23T03:58:57;100587.94;;;14.79;100.00
39891;BME280;25564;53.312;9.790;2023-05-23T04:01:28;100583.41;;;14.81;100.00
39891;BME280;25564;53.312;9.790;2023-05-23T04:04:00;100581.72;;;14.79;100.00
39891;BME280;25564;53.312;9.790;2023-05-23T04:06:32;100572.38;;;14.67;100.00
39891;BME280;25564;53.312;9.790;2023-05-23T04:09:04;100583.75;;;14.72;100.00
39891;BME280;25564;53.312;9.790;2023-05-23T04:11:36;100576.03;;;14.64;100.00
39891;BME280;25564;53.312;9.790;2023-05-23T04:14:08;100571.50;;;14.66;100.00
39891;BME280;25564;53.312;9.790;2023-05-23T04:16:39;100595.16;;;14.77;100.00
39891;BME280;25564;53.312;9.790;2023-05-23T04:19:15;100593.22;;;14.81;100.00
39891;BME280;25564;53.312;9.790;2023-05-23T04:21:47;100569.75;;;14.65;100.00
39891;BME280;25564;53.312;9.790;2023-05-23T04:24:19;100605.78;;;14.79;100.00
39891;BME280;25564;53.312;9.790;2023-05-23T04:26:50;100596.78;;;14.81;100.00
39891;BME280;25564;53.312;9.790;2023-05-23T04:29:21;100580.97;;;14.75;100.00
39891;BME280;25564;53.312;9.790;2023-05-23T04:31:55;100591.31;;;14.84;100.00
39891;BME280;25564;53.312;9.790;2023-05-23T04:34:26;100587.59;;;14.88;100.00
39891;BME280;25564;53.312;9.790;2023-05-23T04:37:00;100561.34;;;14.76;100.00
39891;BME280;25564;53.312;9.790;2023-05-23T04:39:32;100577.91;;;14.86;100.00
39891;BME280;25564;53.312;9.790;2023-05-23T04:42:04;100584.81;;;14.91;100.00
39891;BME280;25564;53.312;9.790;2023-05-23T04:44:37;100586.44;;;14.95;100.00
39891;BME280;25564;53.312;9.790;2023-05-23T04:47:08;100584.59;;;14.97;100.00
39891;BME280;25564;53.312;9.790;2023-05-23T04:49:41;100580.06;;;14.99;100.00
39891;BME280;25564;53.312;9.790;2023-05-23T04:52:13;100563.22;;;14.97;100.00
39891;BME280;25564;53.312;9.790;2023-05-23T04:54:44;100564.03;;;14.99;100.00
39891;BME280;25564;53.312;9.790;2023-05-23T04:57:16;100584.81;;;15.15;100.00
39891;BME280;25564;53.312;9.790;2023-05-23T04:59:48;100554.09;;;15.03;100.00
39891;BME280;25564;53.312;9.790;2023-05-23T05:02:19;100586.34;;;15.22;100.00
39891;BME280;25564;53.312;9.790;2023-05-23T05:04:51;100589.88;;;15.22;100.00
39891;BME280;25564;53.312;9.790;2023-05-23T05:07:22;100582.72;;;15.23;100.00
39891;BME280;25564;53.312;9.790;2023-05-23T05:09:54;100587.19;;;15.22;100.00
39891;BME280;25564;53.312;9.790;2023-05-23T05:12:25;100593.53;;;15.20;100.00
39891;BME280;25564;53.312;9.790;2023-05-23T05:14:57;100585.69;;;15.15;100.00
39891;BME280;25564;53.312;9.790;2023-05-23T05:17:28;100596.56;;;15.11;100.00
39891;BME280;25564;53.312;9.790;2023-05-23T05:20:00;100597.56;;;15.08;100.00
39891;BME280;25564;53.312;9.790;2023-05-23T05:22:31;100591.22;;;15.11;100.00
39891;BME280;25564;53.312;9.790;2023-05-23T05:25:04;100586.69;;;15.13;100.00
39891;BME280;25564;53.312;9.790;2023-05-23T05:27:38;100570.19;;;15.01;100.00
39891;BME280;25564;53.312;9.790;2023-05-23T05:30:10;100592.16;;;15.10;100.00
39891;BME280;25564;53.312;9.790;2023-05-23T05:32:42;100582.38;;;15.09;100.00
39891;BME280;25564;53.312;9.790;2023-05-23T05:35:17;100583.31;;;15.08;100.00
39891;BME280;25564;53.312;9.790;2023-05-23T05:37:48;100588.44;;;15.14;100.00
39891;BME280;25564;53.312;9.790;2023-05-23T05:40:20;100565.13;;;14.94;100.00
39891;BME280;25564;53.312;9.790;2023-05-23T05:42:51;100589.59;;;15.07;100.00
39891;BME280;25564;53.312;9.790;2023-05-23T05:45:23;100588.72;;;15.06;100.00
39891;BME280;25564;53.312;9.790;2023-05-23T05:47:54;100596.63;;;15.09;100.00
39891;BME280;25564;53.312;9.790;2023-05-23T05:50:26;100583.53;;;15.01;100.00
39891;BME280;25564;53.312;9.790;2023-05-23T05:52:57;100597.50;;;15.10;100.00
39891;BME280;25564;53.312;9.790;2023-05-23T05:55:29;100606.91;;;15.20;100.00
39891;BME280;25564;53.312;9.790;2023-05-23T05:58:00;100594.53;;;15.17;100.00
39891;BME280;25564;53.312;9.790;2023-05-23T06:00:32;100612.31;;;15.18;100.00
39891;BME280;25564;53.312;9.790;2023-05-23T06:03:05;100606.97;;;15.18;100.00
39891;BME280;25564;53.312;9.790;2023-05-23T06:05:36;100613.25;;;15.17;100.00
39891;BME280;25564;53.312;9.790;2023-05-23T06:08:09;100614.91;;;15.20;100.00
39891;BME280;25564;53.312;9.790;2023-05-23T06:10:41;100630.22;;;15.16;100.00
39891;BME280;25564;53.312;9.790;2023-05-23T06:13:13;100612.00;;;15.02;100.00
39891;BME280;25564;53.312;9.790;2023-05-23T06:15:44;100630.59;;;15.05;100.00
39891;BME280;25564;53.312;9.790;2023-05-23T06:18:15;100638.75;;;15.02;100.00
39891;BME280;25564;53.312;9.790;2023-05-23T06:20:47;100639.84;;;14.97;100.00
39891;BME280;25564;53.312;9.790;2023-05-23T06:23:18;100628.63;;;14.87;100.00
39891;BME280;25564;53.312;9.790;2023-05-23T06:25:50;100635.47;;;14.94;100.00
39891;BME280;25564;53.312;9.790;2023-05-23T06:28:21;100635.38;;;14.97;100.00
39891;BME280;25564;53.312;9.790;2023-05-23T06:30:52;100635.38;;;14.97;100.00
39891;BME280;25564;53.312;9.790;2023-05-23T06:33:24;100637.75;;;15.05;100.00
39891;BME280;25564;53.312;9.790;2023-05-23T06:35:55;100628.88;;;15.04;100.00
39891;BME280;25564;53.312;9.790;2023-05-23T06:38:30;100635.13;;;15.03;100.00
39891;BME280;25564;53.312;9.790;2023-05-23T06:41:03;100645.88;;;15.02;100.00
39891;BME280;25564;53.312;9.790;2023-05-23T06:43:37;100640.72;;;14.97;100.00
39891;BME280;25564;53.312;9.790;2023-05-23T06:46:08;100636.41;;;14.93;100.00
39891;BME280;25564;53.312;9.790;2023-05-23T06:48:40;100646.28;;;14.91;100.00
39891;BME280;25564;53.312;9.790;2023-05-23T06:51:12;100657.06;;;14.88;100.00
39891;BME280;25564;53.312;9.790;2023-05-23T06:53:43;100646.50;;;14.85;100.00
39891;BME280;25564;53.312;9.790;2023-05-23T06:56:15;100659.91;;;14.84;100.00
39891;BME280;25564;53.312;9.790;2023-05-23T06:58:46;100667.16;;;14.80;100.00
39891;BME280;25564;53.312;9.790;2023-05-23T07:01:17;100670.97;;;14.73;100.00
39891;BME280;25564;53.312;9.790;2023-05-23T07:03:49;100666.72;;;14.67;100.00
39891;BME280;25564;53.312;9.790;2023-05-23T07:06:21;100679.66;;;14.55;100.00
39891;BME280;25564;53.312;9.790;2023-05-23T07:08:52;100680.81;;;14.48;100.00
39891;BME280;25564;53.312;9.790;2023-05-23T07:11:24;100681.91;;;14.40;100.00
39891;BME280;25564;53.312;9.790;2023-05-23T07:13:56;100678.34;;;14.40;100.00
39891;BME280;25564;53.312;9.790;2023-05-23T07:16:27;100648.84;;;14.18;100.00
39891;BME280;25564;53.312;9.790;2023-05-23T07:19:00;100690.00;;;14.37;100.00
39891;BME280;25564;53.312;9.790;2023-05-23T07:21:32;100690.88;;;14.38;100.00
39891;BME280;25564;53.312;9.790;2023-05-23T07:24:04;100679.44;;;14.34;100.00
39891;BME280;25564;53.312;9.790;2023-05-23T07:26:36;100690.75;;;14.43;100.00
39891;BME280;25564;53.312;9.790;2023-05-23T07:29:07;100693.34;;;14.46;100.00
39891;BME280;25564;53.312;9.790;2023-05-23T07:31:39;100701.25;;;14.49;100.00
39891;BME280;25564;53.312;9.790;2023-05-23T07:34:10;100691.44;;;14.49;100.00
39891;BME280;25564;53.312;9.790;2023-05-23T07:36:42;100709.34;;;14.46;100.00
39891;BME280;25564;53.312;9.790;2023-05-23T07:39:13;100697.91;;;14.40;100.00
39891;BME280;25564;53.312;9.790;2023-05-23T07:41:45;100694.69;;;14.31;100.00
39891;BME280;25564;53.312;9.790;2023-05-23T07:44:17;100702.53;;;14.35;100.00
39891;BME280;25564;53.312;9.790;2023-05-23T07:46:51;100705.25;;;14.34;100.00
39891;BME280;25564;53.312;9.790;2023-05-23T07:49:23;100707.34;;;14.24;100.00
39891;BME280;25564;53.312;9.790;2023-05-23T07:51:54;100710.38;;;14.42;100.00
39891;BME280;25564;53.312;9.790;2023-05-23T07:54:26;100717.09;;;14.53;100.00
39891;BME280;25564;53.312;9.790;2023-05-23T07:56:58;100715.50;;;14.48;100.00
39891;BME280;25564;53.312;9.790;2023-05-23T07:59:29;100734.00;;;14.54;100.00
39891;BME280;25564;53.312;9.790;2023-05-23T08:02:01;100716.19;;;14.54;100.00
39891;BME280;25564;53.312;9.790;2023-05-23T08:04:32;100717.31;;;14.47;100.00
39891;BME280;25564;53.312;9.790;2023-05-23T08:07:04;100741.78;;;14.60;100.00
39891;BME280;25564;53.312;9.790;2023-05-23T08:09:40;100730.78;;;14.69;100.00
39891;BME280;25564;53.312;9.790;2023-05-23T08:12:11;100744.97;;;14.71;100.00
39891;BME280;25564;53.312;9.790;2023-05-23T08:14:42;100747.84;;;14.65;100.00
39891;BME280;25564;53.312;9.790;2023-05-23T08:17:22;100736.63;;;14.55;100.00
39891;BME280;25564;53.312;9.790;2023-05-23T08:19:54;100761.53;;;14.56;100.00
39891;BME280;25564;53.312;9.790;2023-05-23T08:22:25;100762.72;;;14.47;100.00
39891;BME280;25564;53.312;9.790;2023-05-23T08:24:56;100763.78;;;14.42;100.00
39891;BME280;25564;53.312;9.790;2023-05-23T08:27:28;100772.72;;;14.39;100.00
39891;BME280;25564;53.312;9.790;2023-05-23T08:30:00;100769.28;;;14.35;100.00
39891;BME280;25564;53.312;9.790;2023-05-23T08:32:33;100772.38;;;14.22;100.00
39891;BME280;25564;53.312;9.790;2023-05-23T08:35:05;100785.25;;;14.09;100.00
39891;BME280;25564;53.312;9.790;2023-05-23T08:37:36;100785.56;;;13.98;100.00
39891;BME280;25564;53.312;9.790;2023-05-23T08:40:13;100785.97;;;13.85;100.00
39891;BME280;25564;53.312;9.790;2023-05-23T08:42:45;100798.66;;;13.77;100.00
39891;BME280;25564;53.312;9.790;2023-05-23T08:45:17;100780.34;;;13.64;100.00
39891;BME280;25564;53.312;9.790;2023-05-23T08:47:50;100800.03;;;13.60;100.00
39891;BME280;25564;53.312;9.790;2023-05-23T08:50:22;100811.00;;;13.51;100.00
39891;BME280;25564;53.312;9.790;2023-05-23T08:52:58;100807.66;;;13.43;100.00
39891;BME280;25564;53.312;9.790;2023-05-23T08:55:29;100818.56;;;13.34;100.00
39891;BME280;25564;53.312;9.790;2023-05-23T08:58:01;100822.19;;;13.31;100.00
39891;BME280;25564;53.312;9.790;2023-05-23T09:00:34;100829.31;;;13.31;100.00
39891;BME280;25564;53.312;9.790;2023-05-23T09:03:05;100832.00;;;13.31;100.00
39891;BME280;25564;53.312;9.790;2023-05-23T09:05:37;100831.16;;;13.29;100.00
39891;BME280;25564;53.312;9.790;2023-05-23T09:08:08;100853.47;;;13.25;100.00
39891;BME280;25564;53.312;9.790;2023-05-23T09:10:41;100846.56;;;13.18;100.00
39891;BME280;25564;53.312;9.790;2023-05-23T09:13:13;100840.66;;;13.03;100.00
39891;BME280;25564;53.312;9.790;2023-05-23T09:15:55;100850.53;;;13.00;100.00
39891;BME280;25564;53.312;9.790;2023-05-23T09:18:41;100870.00;;;13.02;100.00
39891;BME280;25564;53.312;9.790;2023-05-23T09:21:13;100851.78;;;12.85;100.00
39891;BME280;25564;53.312;9.790;2023-05-23T09:23:44;100881.81;;;12.92;100.00
39891;BME280;25564;53.312;9.790;2023-05-23T09:26:16;100886.22;;;12.93;100.00
39891;BME280;25564;53.312;9.790;2023-05-23T09:28:47;100885.34;;;12.92;100.00
39891;BME280;25564;53.312;9.790;2023-05-23T09:31:25;100888.84;;;12.94;100.00
39891;BME280;25564;53.312;9.790;2023-05-23T09:33:57;100894.22;;;12.93;100.00
39891;BME280;25564;53.312;9.790;2023-05-23T09:36:30;100898.63;;;12.94;100.00
39891;BME280;25564;53.312;9.790;2023-05-23T09:39:03;100902.28;;;12.90;100.00
39891;BME280;25564;53.312;9.790;2023-05-23T09:41:35;100903.44;;;12.78;100.00
39891;BME280;25564;53.312;9.790;2023-05-23T09:44:07;100891.25;;;12.68;100.00
39891;BME280;25564;53.312;9.790;2023-05-23T09:46:39;100899.59;;;12.53;100.00
39891;BME280;25564;53.312;9.790;2023-05-23T09:49:17;100918.91;;;12.62;100.00
39891;BME280;25564;53.312;9.790;2023-05-23T09:51:59;100917.16;;;12.61;100.00
39891;BME280;25564;53.312;9.790;2023-05-23T09:54:31;100925.09;;;12.63;100.00
39891;BME280;25564;53.312;9.790;2023-05-23T09:57:03;100912.63;;;12.65;100.00
39891;BME280;25564;53.312;9.790;2023-05-23T09:59:40;100921.41;;;12.68;100.00
39891;BME280;25564;53.312;9.790;2023-05-23T10:02:15;100903.94;;;12.57;100.00
39891;BME280;25564;53.312;9.790;2023-05-23T10:04:48;100903.38;;;12.44;100.00
39891;BME280;25564;53.312;9.790;2023-05-23T10:07:22;100933.31;;;12.52;100.00
39891;BME280;25564;53.312;9.790;2023-05-23T10:10:02;100911.53;;;12.36;100.00
39891;BME280;25564;53.312;9.790;2023-05-23T10:12:46;100946.81;;;12.46;100.00
39891;BME280;25564;53.312;9.790;2023-05-23T10:15:20;100924.16;;;12.27;100.00
39891;BME280;25564;53.312;9.790;2023-05-23T10:20:35;100944.88;;;12.11;100.00
39891;BME280;25564;53.312;9.790;2023-05-23T10:23:06;100962.50;;;12.17;100.00
39891;BME280;25564;53.312;9.790;2023-05-23T10:25:38;100971.19;;;12.25;100.00
39891;BME280;25564;53.312;9.790;2023-05-23T10:28:12;100968.44;;;12.29;100.00
39891;BME280;25564;53.312;9.790;2023-05-23T10:30:44;100947.97;;;12.33;100.00
39891;BME280;25564;53.312;9.790;2023-05-23T10:33:17;100934.44;;;12.43;100.00
39891;BME280;25564;53.312;9.790;2023-05-23T10:36:00;100971.16;;;12.66;100.00
39891;BME280;25564;53.312;9.790;2023-05-23T10:38:42;100962.19;;;12.72;100.00
39891;BME280;25564;53.312;9.790;2023-05-23T10:41:22;100972.75;;;12.75;100.00
39891;BME280;25564;53.312;9.790;2023-05-23T10:44:05;100987.75;;;12.79;100.00
39891;BME280;25564;53.312;9.790;2023-05-23T10:46:52;100988.59;;;12.81;100.00
39891;BME280;25564;53.312;9.790;2023-05-23T10:49:37;100976.25;;;12.77;100.00
39891;BME280;25564;53.312;9.790;2023-05-23T10:52:14;100991.97;;;12.89;100.00
39891;BME280;25564;53.312;9.790;2023-05-23T10:54:49;100999.97;;;12.89;100.00
39891;BME280;25564;53.312;9.790;2023-05-23T10:57:24;101009.66;;;12.92;100.00
39891;BME280;25564;53.312;9.790;2023-05-23T10:59:58;101009.56;;;12.96;100.00
39891;BME280;25564;53.312;9.790;2023-05-23T11:02:29;101018.31;;;13.01;100.00
39891;BME280;25564;53.312;9.790;2023-05-23T11:05:20;101015.53;;;13.07;100.00
39891;BME280;25564;53.312;9.790;2023-05-23T11:08:10;101022.41;;;13.19;100.00
39891;BME280;25564;53.312;9.790;2023-05-23T11:10:58;101031.63;;;13.41;100.00
39891;BME280;25564;53.312;9.790;2023-05-23T11:14:06;101016.97;;;13.58;100.00
39891;BME280;25564;53.312;9.790;2023-05-23T11:16:42;101031.50;;;13.82;100.00
39891;BME280;25564;53.312;9.790;2023-05-23T11:22:01;101037.69;;;14.16;100.00
39891;BME280;25564;53.312;9.790;2023-05-23T11:24:52;101023.00;;;14.00;100.00
39891;BME280;25564;53.312;9.790;2023-05-23T11:27:33;101038.13;;;13.99;100.00
39891;BME280;25564;53.312;9.790;2023-05-23T11:30:09;101037.06;;;14.06;100.00
39891;BME280;25564;53.312;9.790;2023-05-23T11:32:51;101039.16;;;14.28;100.00
39891;BME280;25564;53.312;9.790;2023-05-23T11:35:23;101030.97;;;14.34;100.00
39891;BME280;25564;53.312;9.790;2023-05-23T11:37:55;101035.16;;;14.44;100.00
39891;BME280;25564;53.312;9.790;2023-05-23T11:43:08;101050.97;;;15.11;100.00
39891;BME280;25564;53.312;9.790;2023-05-23T11:45:40;101060.97;;;15.04;100.00
39891;BME280;25564;53.312;9.790;2023-05-23T11:48:13;101055.66;;;14.73;100.00
39891;BME280;25564;53.312;9.790;2023-05-23T11:50:51;101064.88;;;14.63;100.00
39891;BME280;25564;53.312;9.790;2023-05-23T11:53:26;101056.94;;;14.60;100.00
39891;BME280;25564;53.312;9.790;2023-05-23T11:56:00;101062.97;;;14.97;100.00
39891;BME280;25564;53.312;9.790;2023-05-23T11:58:36;101048.41;;;15.35;100.00
39891;BME280;25564;53.312;9.790;2023-05-23T12:01:10;101054.38;;;15.72;100.00
39891;BME280;25564;53.312;9.790;2023-05-23T12:03:48;101056.63;;;15.84;100.00
39891;BME280;25564;53.312;9.790;2023-05-23T12:06:21;101051.28;;;15.84;100.00
39891;BME280;25564;53.312;9.790;2023-05-23T12:08:54;101065.28;;;15.92;100.00
39891;BME280;25564;53.312;9.790;2023-05-23T12:11:30;101065.69;;;15.80;100.00
39891;BME280;25564;53.312;9.790;2023-05-23T12:14:02;101073.63;;;15.55;100.00
39891;BME280;25564;53.312;9.790;2023-05-23T12:16:36;101077.91;;;15.32;99.89
39891;BME280;25564;53.312;9.790;2023-05-23T12:19:10;101054.03;;;15.26;100.00
39891;BME280;25564;53.312;9.790;2023-05-23T12:21:43;101082.56;;;15.82;100.00
39891;BME280;25564;53.312;9.790;2023-05-23T12:24:18;101088.22;;;15.99;100.00
39891;BME280;25564;53.312;9.790;2023-05-23T12:29:27;101083.97;;;15.93;100.00
39891;BME280;25564;53.312;9.790;2023-05-23T12:32:00;101081.38;;;15.90;100.00
39891;BME280;25564;53.312;9.790;2023-05-23T12:34:32;101082.16;;;15.94;100.00
39891;BME280;25564;53.312;9.790;2023-05-23T12:37:03;101082.09;;;16.22;100.00
39891;BME280;25564;53.312;9.790;2023-05-23T12:39:49;101062.47;;;16.21;100.00
39891;BME280;25564;53.312;9.790;2023-05-23T12:42:21;101091.97;;;16.20;100.00
39891;BME280;25564;53.312;9.790;2023-05-23T12:44:52;101089.13;;;16.24;100.00
39891;BME280;25564;53.312;9.790;2023-05-23T12:47:24;101101.50;;;16.28;100.00
39891;BME280;25564;53.312;9.790;2023-05-23T12:49:55;101104.66;;;16.40;100.00
39891;BME280;25564;53.312;9.790;2023-05-23T12:52:27;101096.69;;;16.38;99.86
39891;BME280;25564;53.312;9.790;2023-05-23T12:54:58;101101.59;;;16.25;99.76
39891;BME280;25564;53.312;9.790;2023-05-23T12:57:30;101073.38;;;16.15;100.00
39891;BME280;25564;53.312;9.790;2023-05-23T13:00:02;101101.59;;;16.25;98.43
39891;BME280;25564;53.312;9.790;2023-05-23T13:02:34;101105.38;;;16.20;99.48
39891;BME280;25564;53.312;9.790;2023-05-23T13:05:06;101100.50;;;16.31;99.59
39891;BME280;25564;53.312;9.790;2023-05-23T13:07:38;101110.53;;;16.51;97.83
39891;BME280;25564;53.312;9.790;2023-05-23T13:10:09;101099.53;;;16.33;97.53
39891;BME280;25564;53.312;9.790;2023-05-23T13:12:41;101121.34;;;16.23;98.58
39891;BME280;25564;53.312;9.790;2023-05-23T13:15:12;101114.88;;;16.28;98.41
39891;BME280;25564;53.312;9.790;2023-05-23T13:17:44;101128.16;;;16.31;98.63
39891;BME280;25564;53.312;9.790;2023-05-23T13:20:20;101121.72;;;16.37;98.11
39891;BME280;25564;53.312;9.790;2023-05-23T13:22:52;101130.59;;;16.39;98.64